KMGC/MGC METAR and TAF weather

Enter ICAO airport designator
Station Type Date Time Source
KMGC METAR 2022/11/27 09:35 UTC NOAA

KMGC 270935Z AUTO 00000KT 10SM -RA OVC065 06/00 A2959 RMK AO2


Station Type Date Time Source
KMGC Decoded METAR 2022/11/27 09:35 UTC NOAA

Station name not available
Nov 27, 2022 - 04:35 AM EST / 2022.11.27 0935 UTC
Wind: Calm:0
Visibility: 10 mile(s):0
Sky conditions: overcast
Weather: light rain
Temperature: 42 F (6 C)
Dew Point: 32 F (0 C)
Relative Humidity: 65%
Pressure (altimeter): 29.59 in. Hg (1002 hPa)
ob: KMGC 270935Z AUTO 00000KT 10SM -RA OVC065 06/00 A2959 RMK AO2
cycle: 9

Station Type Date Time Source
KMGC TAF UTC NOAA

Error!

Example: see airport list